Mentor, Minnesota
Current Conditions -  °F | °C
As of 7:15 PM on Thursday 18 Dec 2014 (Local Time) from KFSE Reporting Station
Overcast Overcast  
Wind Chill:   Ceiling: 7000
Heat Index: 18°   Visibility: 10mi
Dew Point: 16°   Wind: 6mph
Humidity: 93%   Direction: 140°SE
Pressure: 30.16"   Gusts: NA
Location:  47.7°N, 96.14°W
Report Text: KFSE 190115Z AUTO 14005KT 10SM OVC070 M08/M09 A3016 RMK AO2
Loading
Personal Weather Stations






























Interactive Weather Map New forecast layout! Learn more

10-Day Weather Forecast

Advertisements
Track Severe Weather on mobile